sensor_id;sensor_type;location;lat;lon;timestamp;temperature;humidity
13744;DHT22;6943;52.368;9.966;2023-03-25T00:02:20;9.60;1.00
13744;DHT22;6943;52.368;9.966;2023-03-25T00:04:51;9.60;1.00
13744;DHT22;6943;52.368;9.966;2023-03-25T00:07:19;9.50;1.00
13744;DHT22;6943;52.368;9.966;2023-03-25T00:09:45;9.40;1.00
13744;DHT22;6943;52.368;9.966;2023-03-25T00:12:12;9.40;99.90
13744;DHT22;6943;52.368;9.966;2023-03-25T00:14:38;9.60;99.90
13744;DHT22;6943;52.368;9.966;2023-03-25T00:17:04;9.40;99.90
13744;DHT22;6943;52.368;9.966;2023-03-25T00:19:31;9.30;99.90
13744;DHT22;6943;52.368;9.966;2023-03-25T00:21:58;9.40;99.90
13744;DHT22;6943;52.368;9.966;2023-03-25T00:24:23;9.40;99.90
13744;DHT22;6943;52.368;9.966;2023-03-25T00:26:49;9.50;99.90
13744;DHT22;6943;52.368;9.966;2023-03-25T00:29:15;9.50;99.90
13744;DHT22;6943;52.368;9.966;2023-03-25T00:31:41;9.50;93.80
13744;DHT22;6943;52.368;9.966;2023-03-25T00:34:07;9.50;53.80
13744;DHT22;6943;52.368;9.966;2023-03-25T00:36:34;9.50;53.90
13744;DHT22;6943;52.368;9.966;2023-03-25T00:39:05;9.40;99.90
13744;DHT22;6943;52.368;9.966;2023-03-25T00:41:30;9.30;99.90
13744;DHT22;6943;52.368;9.966;2023-03-25T00:43:58;9.30;99.90
13744;DHT22;6943;52.368;9.966;2023-03-25T00:46:25;9.30;99.90
13744;DHT22;6943;52.368;9.966;2023-03-25T00:48:52;9.40;99.90
13744;DHT22;6943;52.368;9.966;2023-03-25T00:51:18;9.30;99.90
13744;DHT22;6943;52.368;9.966;2023-03-25T00:53:49;9.30;99.90
13744;DHT22;6943;52.368;9.966;2023-03-25T00:56:33;9.30;99.90
13744;DHT22;6943;52.368;9.966;2023-03-25T01:10:03;9.20;99.90
13744;DHT22;6943;52.368;9.966;2023-03-25T01:12:42;9.20;99.90
13744;DHT22;6943;52.368;9.966;2023-03-25T01:15:14;9.20;99.90
13744;DHT22;6943;52.368;9.966;2023-03-25T01:22:20;9.40;1.00
13744;DHT22;6943;52.368;9.966;2023-03-25T01:26:00;9.50;1.00
13744;DHT22;6943;52.368;9.966;2023-03-25T01:28:53;9.50;1.00
13744;DHT22;6943;52.368;9.966;2023-03-25T01:32:11;9.50;1.00
13744;DHT22;6943;52.368;9.966;2023-03-25T01:35:02;9.50;1.00
13744;DHT22;6943;52.368;9.966;2023-03-25T01:38:10;9.50;1.00
13744;DHT22;6943;52.368;9.966;2023-03-25T01:47:40;9.80;99.90
13744;DHT22;6943;52.368;9.966;2023-03-25T01:51:16;9.90;99.90
13744;DHT22;6943;52.368;9.966;2023-03-25T01:58:17;10.00;92.80
13744;DHT22;6943;52.368;9.966;2023-03-25T02:15:15;10.20;1.00
13744;DHT22;6943;52.368;9.966;2023-03-25T02:24:20;11.10;90.40
13744;DHT22;6943;52.368;9.966;2023-03-25T02:34:42;10.10;1.00
13744;DHT22;6943;52.368;9.966;2023-03-25T02:41:28;10.00;1.00
13744;DHT22;6943;52.368;9.966;2023-03-25T02:44:46;9.90;1.00
13744;DHT22;6943;52.368;9.966;2023-03-25T02:47:33;9.80;14.80
13744;DHT22;6943;52.368;9.966;2023-03-25T02:50:39;9.80;20.90
13744;DHT22;6943;52.368;9.966;2023-03-25T02:53:18;9.80;99.90
13744;DHT22;6943;52.368;9.966;2023-03-25T02:56:11;9.70;99.90
13744;DHT22;6943;52.368;9.966;2023-03-25T03:09:27;9.70;19.10
13744;DHT22;6943;52.368;9.966;2023-03-25T03:19:40;9.60;99.90
13744;DHT22;6943;52.368;9.966;2023-03-25T03:26:02;9.60;99.90
13744;DHT22;6943;52.368;9.966;2023-03-25T03:32:15;9.50;99.90
13744;DHT22;6943;52.368;9.966;2023-03-25T03:37:46;9.40;99.90
13744;DHT22;6943;52.368;9.966;2023-03-25T03:40:29;9.50;93.30
13744;DHT22;6943;52.368;9.966;2023-03-25T03:43:57;9.40;99.90
13744;DHT22;6943;52.368;9.966;2023-03-25T03:50:37;9.30;1.00
13744;DHT22;6943;52.368;9.966;2023-03-25T03:53:31;10.10;1.00
13744;DHT22;6943;52.368;9.966;2023-03-25T04:03:06;9.10;31.20
13744;DHT22;6943;52.368;9.966;2023-03-25T04:07:00;9.20;1.00
13744;DHT22;6943;52.368;9.966;2023-03-25T04:09:42;8.90;1.00
13744;DHT22;6943;52.368;9.966;2023-03-25T04:12:30;9.00;1.00
13744;DHT22;6943;52.368;9.966;2023-03-25T04:15:00;9.00;1.00
13744;DHT22;6943;52.368;9.966;2023-03-25T04:17:26;8.90;1.00
13744;DHT22;6943;52.368;9.966;2023-03-25T04:19:54;8.90;1.00
13744;DHT22;6943;52.368;9.966;2023-03-25T04:22:20;8.80;1.00
13744;DHT22;6943;52.368;9.966;2023-03-25T04:24:46;8.70;1.00
13744;DHT22;6943;52.368;9.966;2023-03-25T04:27:15;8.70;1.00
13744;DHT22;6943;52.368;9.966;2023-03-25T04:29:41;8.80;1.00
13744;DHT22;6943;52.368;9.966;2023-03-25T04:32:09;8.80;1.00
13744;DHT22;6943;52.368;9.966;2023-03-25T04:34:35;8.80;1.00
13744;DHT22;6943;52.368;9.966;2023-03-25T04:37:00;8.80;1.00
13744;DHT22;6943;52.368;9.966;2023-03-25T04:39:26;8.90;1.00
13744;DHT22;6943;52.368;9.966;2023-03-25T04:41:54;9.00;99.90
13744;DHT22;6943;52.368;9.966;2023-03-25T04:44:21;9.00;1.00
13744;DHT22;6943;52.368;9.966;2023-03-25T04:46:50;8.90;1.00
13744;DHT22;6943;52.368;9.966;2023-03-25T04:49:18;8.80;1.00
13744;DHT22;6943;52.368;9.966;2023-03-25T04:51:46;8.70;1.00
13744;DHT22;6943;52.368;9.966;2023-03-25T04:54:14;8.60;1.10
13744;DHT22;6943;52.368;9.966;2023-03-25T04:56:40;8.50;99.90
13744;DHT22;6943;52.368;9.966;2023-03-25T04:59:05;8.40;99.90
13744;DHT22;6943;52.368;9.966;2023-03-25T05:01:31;8.30;1.00
13744;DHT22;6943;52.368;9.966;2023-03-25T05:03:58;8.30;1.00
13744;DHT22;6943;52.368;9.966;2023-03-25T05:06:32;8.50;99.90
13744;DHT22;6943;52.368;9.966;2023-03-25T05:09:01;8.50;99.90
13744;DHT22;6943;52.368;9.966;2023-03-25T05:11:29;8.70;59.80
13744;DHT22;6943;52.368;9.966;2023-03-25T05:13:55;8.90;1.00
13744;DHT22;6943;52.368;9.966;2023-03-25T05:16:21;8.90;1.00
13744;DHT22;6943;52.368;9.966;2023-03-25T05:18:47;9.00;1.00
13744;DHT22;6943;52.368;9.966;2023-03-25T05:21:12;9.10;1.00
13744;DHT22;6943;52.368;9.966;2023-03-25T05:23:38;9.10;99.90
13744;DHT22;6943;52.368;9.966;2023-03-25T05:26:04;9.10;1.00
13744;DHT22;6943;52.368;9.966;2023-03-25T05:28:30;9.20;1.00
13744;DHT22;6943;52.368;9.966;2023-03-25T05:30:55;9.20;1.00
13744;DHT22;6943;52.368;9.966;2023-03-25T05:33:22;9.10;1.00
13744;DHT22;6943;52.368;9.966;2023-03-25T05:35:47;9.10;1.00
13744;DHT22;6943;52.368;9.966;2023-03-25T05:38:14;9.10;1.00
13744;DHT22;6943;52.368;9.966;2023-03-25T05:40:46;9.10;15.10
13744;DHT22;6943;52.368;9.966;2023-03-25T05:43:16;9.00;99.90
13744;DHT22;6943;52.368;9.966;2023-03-25T05:45:41;9.00;1.00
13744;DHT22;6943;52.368;9.966;2023-03-25T05:48:07;9.00;1.00
13744;DHT22;6943;52.368;9.966;2023-03-25T05:50:34;8.90;99.90
13744;DHT22;6943;52.368;9.966;2023-03-25T05:53:00;8.90;1.00
13744;DHT22;6943;52.368;9.966;2023-03-25T05:55:26;8.80;1.00
13744;DHT22;6943;52.368;9.966;2023-03-25T05:57:52;8.70;99.90
13744;DHT22;6943;52.368;9.966;2023-03-25T06:00:19;8.60;1.00
13744;DHT22;6943;52.368;9.966;2023-03-25T06:02:46;8.60;1.00
13744;DHT22;6943;52.368;9.966;2023-03-25T06:05:14;8.70;99.90
13744;DHT22;6943;52.368;9.966;2023-03-25T06:07:42;8.90;1.00
13744;DHT22;6943;52.368;9.966;2023-03-25T06:10:09;9.00;1.00
13744;DHT22;6943;52.368;9.966;2023-03-25T06:12:35;9.10;1.00
13744;DHT22;6943;52.368;9.966;2023-03-25T06:15:07;9.20;1.00
13744;DHT22;6943;52.368;9.966;2023-03-25T06:17:34;9.20;99.90
13744;DHT22;6943;52.368;9.966;2023-03-25T06:20:06;9.20;1.00
13744;DHT22;6943;52.368;9.966;2023-03-25T06:22:41;9.20;99.90
13744;DHT22;6943;52.368;9.966;2023-03-25T06:25:18;9.20;99.90
13744;DHT22;6943;52.368;9.966;2023-03-25T06:27:46;9.30;1.00
13744;DHT22;6943;52.368;9.966;2023-03-25T06:30:14;9.30;1.00
13744;DHT22;6943;52.368;9.966;2023-03-25T06:32:40;9.50;1.00
13744;DHT22;6943;52.368;9.966;2023-03-25T06:35:08;9.70;47.30
13744;DHT22;6943;52.368;9.966;2023-03-25T06:37:34;9.80;1.00
13744;DHT22;6943;52.368;9.966;2023-03-25T06:40:00;9.90;1.00
13744;DHT22;6943;52.368;9.966;2023-03-25T06:42:26;10.10;99.90
13744;DHT22;6943;52.368;9.966;2023-03-25T06:44:52;10.20;1.00
13744;DHT22;6943;52.368;9.966;2023-03-25T06:47:18;10.50;1.00
13744;DHT22;6943;52.368;9.966;2023-03-25T06:49:44;10.70;1.00
13744;DHT22;6943;52.368;9.966;2023-03-25T06:52:10;10.90;1.00
13744;DHT22;6943;52.368;9.966;2023-03-25T06:54:36;11.00;99.90
13744;DHT22;6943;52.368;9.966;2023-03-25T06:57:02;11.00;99.90
13744;DHT22;6943;52.368;9.966;2023-03-25T06:59:27;10.70;1.00
13744;DHT22;6943;52.368;9.966;2023-03-25T07:01:53;10.60;1.00
13744;DHT22;6943;52.368;9.966;2023-03-25T07:04:18;10.40;1.00
13744;DHT22;6943;52.368;9.966;2023-03-25T07:06:43;10.30;1.00
13744;DHT22;6943;52.368;9.966;2023-03-25T07:09:09;10.20;1.00
13744;DHT22;6943;52.368;9.966;2023-03-25T07:11:36;10.20;1.00
13744;DHT22;6943;52.368;9.966;2023-03-25T07:14:02;10.20;1.00
13744;DHT22;6943;52.368;9.966;2023-03-25T07:16:27;10.30;1.00
13744;DHT22;6943;52.368;9.966;2023-03-25T07:18:53;10.40;1.00
13744;DHT22;6943;52.368;9.966;2023-03-25T07:21:21;10.70;1.00
13744;DHT22;6943;52.368;9.966;2023-03-25T07:23:46;11.10;99.90
13744;DHT22;6943;52.368;9.966;2023-03-25T07:26:12;11.30;1.00
13744;DHT22;6943;52.368;9.966;2023-03-25T07:28:38;11.90;1.00
13744;DHT22;6943;52.368;9.966;2023-03-25T07:31:09;12.10;1.00
13744;DHT22;6943;52.368;9.966;2023-03-25T07:33:35;11.90;1.00
13744;DHT22;6943;52.368;9.966;2023-03-25T07:36:01;14.00;1.00
13744;DHT22;6943;52.368;9.966;2023-03-25T07:38:27;15.80;99.90
13744;DHT22;6943;52.368;9.966;2023-03-25T07:40:53;17.10;99.90
13744;DHT22;6943;52.368;9.966;2023-03-25T07:43:18;16.90;99.90
13744;DHT22;6943;52.368;9.966;2023-03-25T07:45:44;16.20;99.90
13744;DHT22;6943;52.368;9.966;2023-03-25T07:48:09;15.50;99.90
13744;DHT22;6943;52.368;9.966;2023-03-25T07:50:40;14.40;99.90
13744;DHT22;6943;52.368;9.966;2023-03-25T07:53:06;13.60;99.90
13744;DHT22;6943;52.368;9.966;2023-03-25T07:55:32;12.70;99.90
13744;DHT22;6943;52.368;9.966;2023-03-25T07:57:57;11.90;1.00
13744;DHT22;6943;52.368;9.966;2023-03-25T08:00:26;11.50;1.00
13744;DHT22;6943;52.368;9.966;2023-03-25T08:02:52;11.20;99.90
13744;DHT22;6943;52.368;9.966;2023-03-25T08:05:18;11.20;1.00
13744;DHT22;6943;52.368;9.966;2023-03-25T08:07:49;11.10;1.00
13744;DHT22;6943;52.368;9.966;2023-03-25T08:10:15;11.20;1.00
13744;DHT22;6943;52.368;9.966;2023-03-25T08:12:44;11.70;1.00
13744;DHT22;6943;52.368;9.966;2023-03-25T08:15:11;11.90;99.90
13744;DHT22;6943;52.368;9.966;2023-03-25T08:17:39;12.40;1.00
13744;DHT22;6943;52.368;9.966;2023-03-25T08:20:06;12.80;1.00
13744;DHT22;6943;52.368;9.966;2023-03-25T08:22:32;13.70;1.00
13744;DHT22;6943;52.368;9.966;2023-03-25T08:24:58;13.80;1.00
13744;DHT22;6943;52.368;9.966;2023-03-25T08:27:24;13.50;1.00
13744;DHT22;6943;52.368;9.966;2023-03-25T08:29:50;13.30;1.00
13744;DHT22;6943;52.368;9.966;2023-03-25T08:32:22;12.70;1.00
13744;DHT22;6943;52.368;9.966;2023-03-25T08:34:48;12.40;1.00
13744;DHT22;6943;52.368;9.966;2023-03-25T08:37:14;12.00;1.00
13744;DHT22;6943;52.368;9.966;2023-03-25T08:39:40;11.70;1.00
13744;DHT22;6943;52.368;9.966;2023-03-25T08:42:07;11.40;1.00
13744;DHT22;6943;52.368;9.966;2023-03-25T08:44:33;11.30;15.90
13744;DHT22;6943;52.368;9.966;2023-03-25T08:46:59;11.10;99.90
13744;DHT22;6943;52.368;9.966;2023-03-25T08:49:24;11.10;99.90
13744;DHT22;6943;52.368;9.966;2023-03-25T08:51:50;11.00;1.00
13744;DHT22;6943;52.368;9.966;2023-03-25T08:54:15;11.10;1.00
13744;DHT22;6943;52.368;9.966;2023-03-25T08:56:41;11.30;1.00
13744;DHT22;6943;52.368;9.966;2023-03-25T08:59:07;11.20;99.90
13744;DHT22;6943;52.368;9.966;2023-03-25T09:01:32;11.10;1.00
13744;DHT22;6943;52.368;9.966;2023-03-25T09:03:58;11.10;1.00
13744;DHT22;6943;52.368;9.966;2023-03-25T09:06:23;10.90;1.00
13744;DHT22;6943;52.368;9.966;2023-03-25T09:08:49;10.80;1.00
13744;DHT22;6943;52.368;9.966;2023-03-25T09:11:14;10.60;88.80
13744;DHT22;6943;52.368;9.966;2023-03-25T09:13:41;10.50;99.90
13744;DHT22;6943;52.368;9.966;2023-03-25T09:16:07;10.50;99.90
13744;DHT22;6943;52.368;9.966;2023-03-25T09:18:33;10.50;99.90
13744;DHT22;6943;52.368;9.966;2023-03-25T09:21:01;10.60;99.90
13744;DHT22;6943;52.368;9.966;2023-03-25T09:23:27;11.20;99.90
13744;DHT22;6943;52.368;9.966;2023-03-25T09:25:52;12.30;1.00
13744;DHT22;6943;52.368;9.966;2023-03-25T09:28:18;13.00;1.00
13744;DHT22;6943;52.368;9.966;2023-03-25T09:30:43;13.00;1.00
13744;DHT22;6943;52.368;9.966;2023-03-25T09:33:09;12.70;1.00
13744;DHT22;6943;52.368;9.966;2023-03-25T09:35:38;12.60;1.00
13744;DHT22;6943;52.368;9.966;2023-03-25T09:38:04;12.30;1.00
13744;DHT22;6943;52.368;9.966;2023-03-25T09:40:30;12.00;94.20
13744;DHT22;6943;52.368;9.966;2023-03-25T09:45:52;12.00;99.90
13744;DHT22;6943;52.368;9.966;2023-03-25T09:48:27;11.80;23.70
13744;DHT22;6943;52.368;9.966;2023-03-25T09:50:55;11.80;1.00
13744;DHT22;6943;52.368;9.966;2023-03-25T09:55:55;12.00;5.00
13744;DHT22;6943;52.368;9.966;2023-03-25T10:00:50;11.90;99.90
13744;DHT22;6943;52.368;9.966;2023-03-25T10:03:25;11.80;99.90
13744;DHT22;6943;52.368;9.966;2023-03-25T10:11:45;12.30;50.30
13744;DHT22;6943;52.368;9.966;2023-03-25T10:14:19;12.40;1.00
13744;DHT22;6943;52.368;9.966;2023-03-25T10:16:55;12.50;1.00
13744;DHT22;6943;52.368;9.966;2023-03-25T10:22:17;13.00;1.00
13744;DHT22;6943;52.368;9.966;2023-03-25T10:24:54;13.30;1.00
13744;DHT22;6943;52.368;9.966;2023-03-25T10:27:45;13.40;1.00
13744;DHT22;6943;52.368;9.966;2023-03-25T10:30:35;13.70;1.00
13744;DHT22;6943;52.368;9.966;2023-03-25T10:33:11;14.00;99.90
13744;DHT22;6943;52.368;9.966;2023-03-25T10:35:43;13.80;99.90
13744;DHT22;6943;52.368;9.966;2023-03-25T10:38:18;13.40;99.90
13744;DHT22;6943;52.368;9.966;2023-03-25T10:41:04;13.40;99.90
13744;DHT22;6943;52.368;9.966;2023-03-25T10:43:38;13.40;99.90
13744;DHT22;6943;52.368;9.966;2023-03-25T10:46:16;13.60;99.90
13744;DHT22;6943;52.368;9.966;2023-03-25T10:48:45;13.70;99.90
13744;DHT22;6943;52.368;9.966;2023-03-25T10:51:16;13.80;99.90
13744;DHT22;6943;52.368;9.966;2023-03-25T10:53:46;14.10;99.90
13744;DHT22;6943;52.368;9.966;2023-03-25T10:56:17;14.20;99.90
13744;DHT22;6943;52.368;9.966;2023-03-25T10:58:49;14.40;99.90
13744;DHT22;6943;52.368;9.966;2023-03-25T11:01:18;13.80;99.90
13744;DHT22;6943;52.368;9.966;2023-03-25T11:03:50;13.50;99.90
13744;DHT22;6943;52.368;9.966;2023-03-25T11:06:23;13.50;99.90
13744;DHT22;6943;52.368;9.966;2023-03-25T11:09:25;13.60;99.90
13744;DHT22;6943;52.368;9.966;2023-03-25T11:11:52;13.80;99.90
13744;DHT22;6943;52.368;9.966;2023-03-25T11:14:23;13.90;99.90
13744;DHT22;6943;52.368;9.966;2023-03-25T11:17:01;14.20;99.90
13744;DHT22;6943;52.368;9.966;2023-03-25T11:20:03;14.30;99.90
13744;DHT22;6943;52.368;9.966;2023-03-25T11:22:36;14.30;99.90
13744;DHT22;6943;52.368;9.966;2023-03-25T11:25:14;14.40;99.90
13744;DHT22;6943;52.368;9.966;2023-03-25T11:27:50;14.30;99.90
13744;DHT22;6943;52.368;9.966;2023-03-25T11:30:19;14.00;99.90
13744;DHT22;6943;52.368;9.966;2023-03-25T11:33:05;13.80;99.90
13744;DHT22;6943;52.368;9.966;2023-03-25T11:35:36;13.50;99.90
13744;DHT22;6943;52.368;9.966;2023-03-25T11:38:23;13.30;99.90
13744;DHT22;6943;52.368;9.966;2023-03-25T11:40:55;13.10;99.90
13744;DHT22;6943;52.368;9.966;2023-03-25T11:43:22;13.70;99.90
13744;DHT22;6943;52.368;9.966;2023-03-25T11:45:49;14.10;99.90
13744;DHT22;6943;52.368;9.966;2023-03-25T11:48:18;14.30;99.90
13744;DHT22;6943;52.368;9.966;2023-03-25T11:50:57;14.30;99.90
13744;DHT22;6943;52.368;9.966;2023-03-25T11:53:25;14.40;99.90
13744;DHT22;6943;52.368;9.966;2023-03-25T11:55:54;14.00;99.90
13744;DHT22;6943;52.368;9.966;2023-03-25T11:58:28;13.80;99.90
13744;DHT22;6943;52.368;9.966;2023-03-25T12:01:03;13.50;99.90
13744;DHT22;6943;52.368;9.966;2023-03-25T12:03:33;13.30;99.90
13744;DHT22;6943;52.368;9.966;2023-03-25T12:06:18;13.20;99.90
13744;DHT22;6943;52.368;9.966;2023-03-25T12:08:55;13.40;99.90
13744;DHT22;6943;52.368;9.966;2023-03-25T12:11:31;13.40;99.90
13744;DHT22;6943;52.368;9.966;2023-03-25T12:33:26;14.20;99.90
13744;DHT22;6943;52.368;9.966;2023-03-25T12:36:22;14.60;99.90
13744;DHT22;6943;52.368;9.966;2023-03-25T12:38:57;14.80;99.90
13744;DHT22;6943;52.368;9.966;2023-03-25T14:13:40;14.20;99.90
13744;DHT22;6943;52.368;9.966;2023-03-25T14:16:10;11.40;1.00
13744;DHT22;6943;52.368;9.966;2023-03-25T14:18:51;11.50;1.00
13744;DHT22;6943;52.368;9.966;2023-03-25T14:21:25;11.50;1.00
13744;DHT22;6943;52.368;9.966;2023-03-25T14:26:50;11.50;1.00
13744;DHT22;6943;52.368;9.966;2023-03-25T14:29:50;11.40;1.00
13744;DHT22;6943;52.368;9.966;2023-03-25T14:34:45;11.60;1.00
13744;DHT22;6943;52.368;9.966;2023-03-25T14:37:27;11.60;99.90
13744;DHT22;6943;52.368;9.966;2023-03-25T14:40:01;11.60;99.90
13744;DHT22;6943;52.368;9.966;2023-03-25T14:42:57;11.60;1.00
13744;DHT22;6943;52.368;9.966;2023-03-25T14:46:03;11.50;1.00
13744;DHT22;6943;52.368;9.966;2023-03-25T14:48:37;11.50;99.90
13744;DHT22;6943;52.368;9.966;2023-03-25T14:53:39;11.40;99.90
13744;DHT22;6943;52.368;9.966;2023-03-25T14:56:07;11.50;1.00
13744;DHT22;6943;52.368;9.966;2023-03-25T14:58:38;11.70;1.00
13744;DHT22;6943;52.368;9.966;2023-03-25T15:01:08;11.80;1.00
13744;DHT22;6943;52.368;9.966;2023-03-25T15:03:40;11.90;1.00
13744;DHT22;6943;52.368;9.966;2023-03-25T15:06:17;12.10;1.00
13744;DHT22;6943;52.368;9.966;2023-03-25T15:08:55;12.00;99.90
13744;DHT22;6943;52.368;9.966;2023-03-25T15:11:30;11.80;99.90
13744;DHT22;6943;52.368;9.966;2023-03-25T15:14:01;11.60;1.00
13744;DHT22;6943;52.368;9.966;2023-03-25T15:16:58;11.30;1.00
13744;DHT22;6943;52.368;9.966;2023-03-25T15:19:22;11.20;99.90
13744;DHT22;6943;52.368;9.966;2023-03-25T15:26:53;10.70;99.90
13744;DHT22;6943;52.368;9.966;2023-03-25T15:29:38;10.60;99.90
13744;DHT22;6943;52.368;9.966;2023-03-25T15:37:45;10.70;99.90
13744;DHT22;6943;52.368;9.966;2023-03-25T15:40:27;11.00;58.60
13744;DHT22;6943;52.368;9.966;2023-03-25T15:43:38;11.30;1.00
13744;DHT22;6943;52.368;9.966;2023-03-25T15:55:04;10.90;99.90
13744;DHT22;6943;52.368;9.966;2023-03-25T16:00:18;10.70;1.00
13744;DHT22;6943;52.368;9.966;2023-03-25T16:05:31;10.60;1.00
13744;DHT22;6943;52.368;9.966;2023-03-25T16:07:59;10.50;1.00
13744;DHT22;6943;52.368;9.966;2023-03-25T16:10:31;10.50;99.90
13744;DHT22;6943;52.368;9.966;2023-03-25T16:13:06;10.40;1.00
13744;DHT22;6943;52.368;9.966;2023-03-25T16:15:33;10.30;1.00
13744;DHT22;6943;52.368;9.966;2023-03-25T16:18:02;10.30;1.00
13744;DHT22;6943;52.368;9.966;2023-03-25T16:20:29;10.20;1.00
13744;DHT22;6943;52.368;9.966;2023-03-25T16:22:58;10.10;1.00
13744;DHT22;6943;52.368;9.966;2023-03-25T16:25:34;10.00;99.90
13744;DHT22;6943;52.368;9.966;2023-03-25T16:28:03;9.90;99.90
13744;DHT22;6943;52.368;9.966;2023-03-25T16:30:40;9.90;1.00
13744;DHT22;6943;52.368;9.966;2023-03-25T16:35:37;9.90;1.00
13744;DHT22;6943;52.368;9.966;2023-03-25T16:38:04;10.00;1.00
13744;DHT22;6943;52.368;9.966;2023-03-25T16:40:38;9.90;1.00
13744;DHT22;6943;52.368;9.966;2023-03-25T16:43:24;9.80;1.00
13744;DHT22;6943;52.368;9.966;2023-03-25T16:45:52;9.80;1.00
13744;DHT22;6943;52.368;9.966;2023-03-25T16:48:34;9.80;1.00
13744;DHT22;6943;52.368;9.966;2023-03-25T16:51:24;9.90;1.00
13744;DHT22;6943;52.368;9.966;2023-03-25T16:53:54;10.00;1.00
13744;DHT22;6943;52.368;9.966;2023-03-25T16:56:30;10.00;1.00
13744;DHT22;6943;52.368;9.966;2023-03-25T16:59:05;10.00;99.90
13744;DHT22;6943;52.368;9.966;2023-03-25T17:01:37;10.00;51.50
13744;DHT22;6943;52.368;9.966;2023-03-25T17:04:15;10.10;99.90
13744;DHT22;6943;52.368;9.966;2023-03-25T17:06:58;10.10;69.00
13744;DHT22;6943;52.368;9.966;2023-03-25T17:09:29;10.10;1.00
13744;DHT22;6943;52.368;9.966;2023-03-25T17:12:02;10.00;1.00
13744;DHT22;6943;52.368;9.966;2023-03-25T17:14:32;10.10;1.00
13744;DHT22;6943;52.368;9.966;2023-03-25T17:17:12;10.00;1.00
13744;DHT22;6943;52.368;9.966;2023-03-25T17:19:45;9.90;1.00
13744;DHT22;6943;52.368;9.966;2023-03-25T17:22:27;9.70;1.00
13744;DHT22;6943;52.368;9.966;2023-03-25T17:24:58;9.60;1.00
13744;DHT22;6943;52.368;9.966;2023-03-25T17:27:37;9.50;1.00
13744;DHT22;6943;52.368;9.966;2023-03-25T17:30:18;9.40;1.00
13744;DHT22;6943;52.368;9.966;2023-03-25T17:32:45;9.30;1.00
13744;DHT22;6943;52.368;9.966;2023-03-25T17:35:22;9.30;1.00
13744;DHT22;6943;52.368;9.966;2023-03-25T17:37:51;9.30;1.00
13744;DHT22;6943;52.368;9.966;2023-03-25T17:40:23;9.30;99.90
13744;DHT22;6943;52.368;9.966;2023-03-25T17:42:53;9.40;1.00
13744;DHT22;6943;52.368;9.966;2023-03-25T17:45:19;9.40;1.00
13744;DHT22;6943;52.368;9.966;2023-03-25T17:47:47;9.40;1.00
13744;DHT22;6943;52.368;9.966;2023-03-25T17:50:16;9.40;1.00
13744;DHT22;6943;52.368;9.966;2023-03-25T17:52:42;9.50;99.90
13744;DHT22;6943;52.368;9.966;2023-03-25T17:55:08;9.60;1.00
13744;DHT22;6943;52.368;9.966;2023-03-25T17:57:34;9.60;1.00
13744;DHT22;6943;52.368;9.966;2023-03-25T18:00:00;9.70;1.00
13744;DHT22;6943;52.368;9.966;2023-03-25T18:02:26;9.70;1.00
13744;DHT22;6943;52.368;9.966;2023-03-25T18:04:51;9.80;1.00
13744;DHT22;6943;52.368;9.966;2023-03-25T18:07:17;9.80;1.00
13744;DHT22;6943;52.368;9.966;2023-03-25T18:09:45;9.80;1.00
13744;DHT22;6943;52.368;9.966;2023-03-25T18:12:13;9.80;1.00
13744;DHT22;6943;52.368;9.966;2023-03-25T18:14:39;9.80;1.00
13744;DHT22;6943;52.368;9.966;2023-03-25T18:17:12;9.70;99.90
13744;DHT22;6943;52.368;9.966;2023-03-25T18:19:38;9.70;1.00
13744;DHT22;6943;52.368;9.966;2023-03-25T18:22:08;9.70;1.00
13744;DHT22;6943;52.368;9.966;2023-03-25T18:24:36;9.70;99.90
13744;DHT22;6943;52.368;9.966;2023-03-25T18:27:01;9.50;1.00
13744;DHT22;6943;52.368;9.966;2023-03-25T18:29:29;9.40;99.90
13744;DHT22;6943;52.368;9.966;2023-03-25T18:31:56;9.30;99.90
13744;DHT22;6943;52.368;9.966;2023-03-25T18:34:22;9.30;1.00
13744;DHT22;6943;52.368;9.966;2023-03-25T18:36:49;9.30;1.00
13744;DHT22;6943;52.368;9.966;2023-03-25T18:39:18;9.30;1.00
13744;DHT22;6943;52.368;9.966;2023-03-25T18:41:45;9.20;1.00
13744;DHT22;6943;52.368;9.966;2023-03-25T18:44:11;9.00;99.90
13744;DHT22;6943;52.368;9.966;2023-03-25T18:46:37;8.90;99.90
13744;DHT22;6943;52.368;9.966;2023-03-25T18:49:04;8.90;99.90
13744;DHT22;6943;52.368;9.966;2023-03-25T18:51:35;8.90;99.90
13744;DHT22;6943;52.368;9.966;2023-03-25T18:54:02;8.80;99.90
13744;DHT22;6943;52.368;9.966;2023-03-25T18:56:27;8.70;1.00
13744;DHT22;6943;52.368;9.966;2023-03-25T18:58:53;8.80;1.00
13744;DHT22;6943;52.368;9.966;2023-03-25T19:01:19;8.90;1.00
13744;DHT22;6943;52.368;9.966;2023-03-25T19:03:46;9.00;99.90
13744;DHT22;6943;52.368;9.966;2023-03-25T19:06:12;9.10;99.90
13744;DHT22;6943;52.368;9.966;2023-03-25T19:08:41;9.20;1.00
13744;DHT22;6943;52.368;9.966;2023-03-25T19:11:10;9.30;1.00
13744;DHT22;6943;52.368;9.966;2023-03-25T19:13:36;9.40;1.00
13744;DHT22;6943;52.368;9.966;2023-03-25T19:16:02;9.30;1.00
13744;DHT22;6943;52.368;9.966;2023-03-25T19:18:30;9.40;1.00
13744;DHT22;6943;52.368;9.966;2023-03-25T19:20:56;9.40;1.00
13744;DHT22;6943;52.368;9.966;2023-03-25T19:23:22;9.40;1.00
13744;DHT22;6943;52.368;9.966;2023-03-25T19:25:50;9.30;1.00
13744;DHT22;6943;52.368;9.966;2023-03-25T19:28:20;9.30;1.00
13744;DHT22;6943;52.368;9.966;2023-03-25T19:30:47;9.20;1.00
13744;DHT22;6943;52.368;9.966;2023-03-25T19:33:13;9.10;1.00
13744;DHT22;6943;52.368;9.966;2023-03-25T19:35:39;9.10;1.00
13744;DHT22;6943;52.368;9.966;2023-03-25T19:38:06;9.10;1.00
13744;DHT22;6943;52.368;9.966;2023-03-25T19:40:34;9.00;1.00
13744;DHT22;6943;52.368;9.966;2023-03-25T19:43:06;8.80;1.00
13744;DHT22;6943;52.368;9.966;2023-03-25T19:45:40;8.90;11.70
13744;DHT22;6943;52.368;9.966;2023-03-25T19:48:05;8.90;1.00
13744;DHT22;6943;52.368;9.966;2023-03-25T19:50:32;8.90;1.00
13744;DHT22;6943;52.368;9.966;2023-03-25T19:53:00;8.70;1.00
13744;DHT22;6943;52.368;9.966;2023-03-25T19:55:26;8.30;99.90
13744;DHT22;6943;52.368;9.966;2023-03-25T19:57:52;8.50;99.90
13744;DHT22;6943;52.368;9.966;2023-03-25T20:00:23;8.40;1.00
13744;DHT22;6943;52.368;9.966;2023-03-25T20:02:53;8.40;1.00
13744;DHT22;6943;52.368;9.966;2023-03-25T20:05:20;8.60;1.00
13744;DHT22;6943;52.368;9.966;2023-03-25T20:07:47;8.30;1.00
13744;DHT22;6943;52.368;9.966;2023-03-25T20:10:17;8.40;1.00
13744;DHT22;6943;52.368;9.966;2023-03-25T20:12:43;7.80;1.00
13744;DHT22;6943;52.368;9.966;2023-03-25T20:15:10;8.40;1.00
13744;DHT22;6943;52.368;9.966;2023-03-25T20:17:36;8.50;99.90
13744;DHT22;6943;52.368;9.966;2023-03-25T20:20:04;8.50;99.90
13744;DHT22;6943;52.368;9.966;2023-03-25T20:22:33;8.60;99.90
13744;DHT22;6943;52.368;9.966;2023-03-25T20:24:59;8.70;99.90
13744;DHT22;6943;52.368;9.966;2023-03-25T20:27:25;11.20;62.30
13744;DHT22;6943;52.368;9.966;2023-03-25T20:29:50;8.70;99.90
13744;DHT22;6943;52.368;9.966;2023-03-25T20:32:16;8.20;1.00
13744;DHT22;6943;52.368;9.966;2023-03-25T20:34:42;8.90;1.00
13744;DHT22;6943;52.368;9.966;2023-03-25T20:37:08;8.90;1.00
13744;DHT22;6943;52.368;9.966;2023-03-25T20:39:34;9.00;1.00
13744;DHT22;6943;52.368;9.966;2023-03-25T20:42:00;9.00;1.00
13744;DHT22;6943;52.368;9.966;2023-03-25T20:44:26;9.00;1.00
13744;DHT22;6943;52.368;9.966;2023-03-25T20:46:52;8.90;1.00
13744;DHT22;6943;52.368;9.966;2023-03-25T20:49:17;8.90;1.00
13744;DHT22;6943;52.368;9.966;2023-03-25T20:51:45;9.00;1.00
13744;DHT22;6943;52.368;9.966;2023-03-25T20:54:11;9.00;1.00